Terminal Aerodrome Forecast
Issued by NWS

Home | Current Version | Previous Version | Graphics & Text | Print | Product List | Glossary On
Versions: 1 2 3 4 5 6 7 8 9 10 11 12 13 14 15 16 17 18 19 20 21 22 23 24 25 26 27
109
FTUS43 KABR 081723
TAFATY
TAF
KATY 081723Z 0818/0918 34027G35KT P6SM OVC023
      TEMPO 0818/0822 2SM -SN
     FM082200 34020G29KT P6SM SCT250
     FM090200 34017KT P6SM BKN150=

USA.gov is the U.S. government's official web portal to all federal, state and local government web resources and services.